FA55 weather

Garnair Airport
Bonifay, Florida, United States

Public forecast

Using degrees Fahrenheit for public forecast. Weather courtesy of forecast.io.

METAR (pilot weather report)

Closest report is Tri-County Airport, 9.5 nm (17.6 km) ENE. Retrieved 2017/10/22 07:58 UTC (1 hour ago):

K1J0 220758Z AUTO 04003KT 10SM CLR 19/18 A3013 RMK NO CARRIER RING CONNECT 57600 SATMTRATT ALL TTAA00 KATT 220846 COR SPECI KATT 220842Z AUTO 19004KT 10SM FEW015 BKN025 24/23 A2997 RMK AO2 T02440228

TAF (pilot weather forecast)

Closest forecast is Northwest Florida Beaches International Airport, 25.4 nm (47.1 km) S. Retrieved 2017/10/22 06:36 UTC (3 hours ago):

TAF KECP 220532Z 2206/2306 07006KT P6SM BKN250 FM221300 11010KT P6SM SCT035 BKN250 FM221800 12007KT P6SM VCSH BKN050 BKN100